createdAt,value
2019-04-16T00:00:22.116Z,0
2019-04-16T00:01:22.824Z,0
2019-04-16T00:02:23.403Z,0
2019-04-16T00:03:20.211Z,0
2019-04-16T00:04:22.240Z,0
2019-04-16T00:05:20.038Z,0
2019-04-16T00:06:20.015Z,0
2019-04-16T00:07:19.765Z,0
2019-04-16T00:08:36.613Z,0
2019-04-16T00:09:19.721Z,0
2019-04-16T00:10:19.947Z,0
2019-04-16T00:11:19.924Z,0
2019-04-16T00:12:19.912Z,0
2019-04-16T00:13:19.643Z,0
2019-04-16T00:14:19.633Z,0
2019-04-16T00:15:19.865Z,0
2019-04-16T00:16:23.058Z,0
2019-04-16T00:17:22.440Z,0
2019-04-16T00:18:23.074Z,0
2019-04-16T00:19:19.557Z,0
2019-04-16T00:20:19.773Z,0
2019-04-16T00:21:20.287Z,0
2019-04-16T00:22:21.908Z,0
2019-04-16T00:23:19.719Z,0
2019-04-16T00:24:23.148Z,0
2019-04-16T00:25:19.441Z,0
2019-04-16T00:26:19.420Z,0
2019-04-16T00:27:19.646Z,0
2019-04-16T00:28:19.638Z,0
2019-04-16T00:29:19.621Z,0
2019-04-16T00:30:19.604Z,0
2019-04-16T00:31:19.576Z,0
2019-04-16T00:32:19.331Z,0
2019-04-16T00:33:20.628Z,0
2019-04-16T00:34:23.068Z,0
2019-04-16T00:35:22.657Z,0
2019-04-16T00:36:20.964Z,0
2019-04-16T00:37:22.752Z,0
2019-04-16T00:38:22.390Z,0
2019-04-16T00:39:18.952Z,0
2019-04-16T00:40:19.430Z,0
2019-04-16T00:41:19.408Z,0
2019-04-16T00:42:19.394Z,0
2019-04-16T00:43:19.133Z,0
2019-04-16T00:44:19.536Z,0
2019-04-16T00:45:19.333Z,0
2019-04-16T00:46:21.535Z,0
2019-04-16T00:47:19.302Z,0
2019-04-16T00:48:19.052Z,0
2019-04-16T00:49:19.269Z,0
2019-04-16T00:50:19.014Z,0
2019-04-16T00:51:19.000Z,0
2019-04-16T00:52:18.976Z,0
2019-04-16T00:53:18.956Z,0
2019-04-16T00:54:20.799Z,0
2019-04-16T00:55:23.213Z,0
2019-04-16T00:56:22.823Z,0
2019-04-16T00:57:22.498Z,0
2019-04-16T00:58:22.059Z,0
2019-04-16T00:59:21.278Z,0
2019-04-16T01:00:19.110Z,0
2019-04-16T01:01:19.063Z,0
2019-04-16T01:02:19.050Z,0
2019-04-16T01:03:18.814Z,0
2019-04-16T01:04:19.032Z,0
2019-04-16T01:05:18.755Z,0
2019-04-16T01:06:18.988Z,0
2019-04-16T01:07:18.968Z,0
2019-04-16T01:08:18.713Z,0
2019-04-16T01:09:18.682Z,0
2019-04-16T01:10:18.426Z,0
2019-04-16T01:11:18.653Z,0
2019-04-16T01:12:18.884Z,0
2019-04-16T01:13:18.868Z,0
2019-04-16T01:14:18.604Z,0
2019-04-16T01:15:18.585Z,0
2019-04-16T01:16:18.808Z,0
2019-04-16T01:17:18.808Z,0
2019-04-16T01:18:18.548Z,0
2019-04-16T01:19:20.350Z,0
2019-04-16T01:20:22.390Z,0
2019-04-16T01:21:23.354Z,0
2019-04-16T01:22:23.066Z,0
2019-04-16T01:23:22.432Z,0
2019-04-16T01:24:22.276Z,0
2019-04-16T01:25:20.208Z,0
2019-04-16T01:26:18.650Z,0
2019-04-16T01:27:18.383Z,0
2019-04-16T01:28:18.358Z,0
2019-04-16T01:29:18.598Z,0
2019-04-16T01:30:18.573Z,0
2019-04-16T01:31:18.599Z,0
2019-04-16T01:32:21.217Z,0
2019-04-16T01:33:22.096Z,0
2019-04-16T01:34:22.255Z,0
2019-04-16T01:35:21.286Z,0
2019-04-16T01:36:20.280Z,0
2019-04-16T01:37:18.228Z,0
2019-04-16T01:38:18.200Z,0
2019-04-16T01:39:27.316Z,0
2019-04-16T01:40:21.047Z,0
2019-04-16T01:41:21.614Z,0
2019-04-16T01:42:18.380Z,0
2019-04-16T01:43:18.111Z,0
2019-04-16T01:44:18.369Z,0
2019-04-16T01:45:18.340Z,0
2019-04-16T01:46:17.858Z,0
2019-04-16T01:47:18.316Z,0
2019-04-16T01:48:18.036Z,0
2019-04-16T01:49:20.440Z,0
2019-04-16T01:50:22.314Z,0
2019-04-16T01:51:22.115Z,0
2019-04-16T01:52:21.142Z,0
2019-04-16T01:53:23.225Z,0
2019-04-16T01:54:22.485Z,0
2019-04-16T01:55:18.229Z,0
2019-04-16T01:56:18.406Z,0
2019-04-16T01:57:17.947Z,0
2019-04-16T01:58:18.160Z,0
2019-04-16T01:59:17.977Z,0
2019-04-16T02:00:18.465Z,0
2019-04-16T02:01:20.698Z,0
2019-04-16T02:02:22.080Z,0
2019-04-16T02:03:22.539Z,0
2019-04-16T02:04:22.102Z,0
2019-04-16T02:05:20.326Z,0
2019-04-16T02:06:18.003Z,0
2019-04-16T02:07:17.957Z,0
2019-04-16T02:08:17.702Z,0
2019-04-16T02:09:36.750Z,0
2019-04-16T02:10:18.021Z,0
2019-04-16T02:11:20.343Z,0
2019-04-16T02:12:22.950Z,0
2019-04-16T02:13:22.274Z,0
2019-04-16T02:14:24.718Z,0
2019-04-16T02:15:21.560Z,0
2019-04-16T02:16:17.825Z,0
2019-04-16T02:17:17.790Z,0
2019-04-16T02:18:17.774Z,0
2019-04-16T02:19:17.757Z,0
2019-04-16T02:20:17.488Z,0
2019-04-16T02:21:20.295Z,0
2019-04-16T02:22:22.047Z,0
2019-04-16T02:23:20.686Z,0
2019-04-16T02:24:21.137Z,0
2019-04-16T02:25:21.203Z,0
2019-04-16T02:26:17.552Z,0
2019-04-16T02:27:17.765Z,0
2019-04-16T02:28:17.712Z,0
2019-04-16T02:29:17.591Z,0
2019-04-16T02:30:17.898Z,0
2019-04-16T02:31:23.507Z,0
2019-04-16T02:32:17.570Z,0
2019-04-16T02:33:17.668Z,0
2019-04-16T02:34:17.709Z,0
2019-04-16T02:35:17.594Z,0
2019-04-16T02:36:17.788Z,0
2019-04-16T02:37:17.526Z,0
2019-04-16T02:38:22.371Z,0
2019-04-16T02:39:17.415Z,0
2019-04-16T02:40:24.581Z,0
2019-04-16T02:41:17.198Z,0
2019-04-16T02:42:17.379Z,0
2019-04-16T02:43:17.997Z,0
2019-04-16T02:44:24.508Z,0
2019-04-16T02:45:22.438Z,0
2019-04-16T02:46:17.060Z,0
2019-04-16T02:47:18.202Z,0
2019-04-16T02:48:25.039Z,0
2019-04-16T02:49:22.900Z,0
2019-04-16T02:50:17.013Z,0
2019-04-16T02:51:18.420Z,0
2019-04-16T02:52:24.786Z,0
2019-04-16T02:53:17.435Z,0
2019-04-16T02:54:16.703Z,0
2019-04-16T02:55:19.989Z,0
2019-04-16T02:56:24.944Z,0
2019-04-16T02:57:17.445Z,0
2019-04-16T02:58:17.148Z,0
2019-04-16T02:59:22.209Z,0
2019-04-16T03:00:20.782Z,0
2019-04-16T03:01:20.344Z,0
2019-04-16T03:02:16.650Z,0
2019-04-16T03:03:17.048Z,0
2019-04-16T03:04:17.090Z,0
2019-04-16T03:05:17.232Z,0
2019-04-16T03:06:16.967Z,0
2019-04-16T03:07:17.011Z,0
2019-04-16T03:08:16.867Z,0
2019-04-16T03:09:18.596Z,0
2019-04-16T03:10:21.908Z,0
2019-04-16T03:11:21.026Z,0
2019-04-16T03:12:17.527Z,0
2019-04-16T03:13:16.854Z,0
2019-04-16T03:14:16.591Z,0
2019-04-16T03:15:17.059Z,0
2019-04-16T03:16:17.293Z,0
2019-04-16T03:17:20.529Z,0
2019-04-16T03:18:21.035Z,0
2019-04-16T03:19:21.817Z,0
2019-04-16T03:20:16.811Z,0
2019-04-16T03:21:16.744Z,0
2019-04-16T03:22:16.725Z,0
2019-04-16T03:23:16.698Z,0
2019-04-16T03:24:18.863Z,0
2019-04-16T03:25:22.358Z,0
2019-04-16T03:26:21.539Z,0
2019-04-16T03:27:21.787Z,0
2019-04-16T03:28:16.620Z,0
2019-04-16T03:29:16.599Z,0
2019-04-16T03:30:16.496Z,0
2019-04-16T03:31:28.315Z,0
2019-04-16T03:32:22.690Z,0
2019-04-16T03:33:23.603Z,0
2019-04-16T03:34:19.002Z,0
2019-04-16T03:35:16.241Z,0
2019-04-16T03:36:16.657Z,0
2019-04-16T03:37:16.499Z,0
2019-04-16T03:38:16.441Z,0
2019-04-16T03:39:21.879Z,0
2019-04-16T03:40:32.592Z,0
2019-04-16T03:41:16.387Z,0
2019-04-16T03:42:15.880Z,0
2019-04-16T03:43:16.611Z,0
2019-04-16T03:44:16.340Z,0
2019-04-16T03:45:19.162Z,0
2019-04-16T03:46:21.954Z,0
2019-04-16T03:47:21.013Z,0
2019-04-16T03:48:16.519Z,0
2019-04-16T03:49:15.773Z,0
2019-04-16T03:50:16.239Z,0
2019-04-16T03:51:16.232Z,0
2019-04-16T03:52:18.782Z,0
2019-04-16T03:53:21.076Z,0
2019-04-16T03:54:18.781Z,0
2019-04-16T03:55:15.923Z,0
2019-04-16T03:56:15.905Z,0
2019-04-16T03:57:16.297Z,0
2019-04-16T03:58:16.811Z,0
2019-04-16T03:59:20.354Z,0
2019-04-16T04:00:20.950Z,0
2019-04-16T04:01:19.877Z,0
2019-04-16T04:02:21.700Z,0
2019-04-16T04:03:15.792Z,0
2019-04-16T04:04:16.248Z,0
2019-04-16T04:05:16.970Z,0
2019-04-16T04:06:16.896Z,0
2019-04-16T04:07:20.990Z,0
2019-04-16T04:08:21.548Z,0
2019-04-16T04:09:18.816Z,0
2019-04-16T04:10:28.955Z,0
2019-04-16T04:11:20.001Z,0
2019-04-16T04:12:19.381Z,5
2019-04-16T04:13:20.065Z,5
2019-04-16T04:14:15.912Z,5
2019-04-16T04:15:16.154Z,5
2019-04-16T04:16:15.808Z,5
2019-04-16T04:17:17.027Z,5
2019-04-16T04:18:20.077Z,5
2019-04-16T04:19:21.272Z,5
2019-04-16T04:20:20.311Z,10
2019-04-16T04:21:20.892Z,10
2019-04-16T04:22:15.724Z,10
2019-04-16T04:23:15.969Z,10
2019-04-16T04:24:15.914Z,10
2019-04-16T04:25:16.091Z,10
2019-04-16T04:26:18.947Z,15
2019-04-16T04:27:23.742Z,15
2019-04-16T04:28:21.322Z,15
2019-04-16T04:29:16.141Z,15
2019-04-16T04:30:15.574Z,15
2019-04-16T04:31:15.712Z,20
2019-04-16T04:32:15.210Z,20
2019-04-16T04:33:18.876Z,20
2019-04-16T04:34:24.018Z,20
2019-04-16T04:35:19.922Z,20
2019-04-16T04:36:18.687Z,25
2019-04-16T04:37:15.414Z,25
2019-04-16T04:38:15.695Z,25
2019-04-16T04:39:22.822Z,25
2019-04-16T04:40:20.514Z,30
2019-04-16T04:41:15.396Z,30
2019-04-16T04:42:18.884Z,30
2019-04-16T04:43:15.353Z,30
2019-04-16T04:44:15.344Z,30
2019-04-16T04:45:19.367Z,35
2019-04-16T04:46:20.584Z,35
2019-04-16T04:47:20.347Z,35
2019-04-16T04:48:22.936Z,35
2019-04-16T04:49:15.519Z,40
2019-04-16T04:50:15.442Z,40
2019-04-16T04:51:17.665Z,40
2019-04-16T04:52:19.107Z,40
2019-04-16T04:53:20.164Z,45
2019-04-16T04:54:15.166Z,45
2019-04-16T04:55:14.920Z,45
2019-04-16T04:56:15.136Z,45
2019-04-16T04:57:15.263Z,45
2019-04-16T04:58:15.220Z,50
2019-04-16T04:59:15.802Z,50
2019-04-16T05:00:17.616Z,50
2019-04-16T05:01:19.503Z,50
2019-04-16T05:02:20.734Z,55
2019-04-16T05:03:19.847Z,55
2019-04-16T05:04:18.836Z,55
2019-04-16T05:05:14.745Z,55
2019-04-16T05:06:14.728Z,55
2019-04-16T05:07:14.949Z,60
2019-04-16T05:08:14.691Z,60
2019-04-16T05:09:14.922Z,60
2019-04-16T05:10:17.777Z,60
2019-04-16T05:11:19.946Z,60
2019-04-16T05:12:23.093Z,65
2019-04-16T05:13:14.861Z,65
2019-04-16T05:14:14.932Z,65
2019-04-16T05:15:14.868Z,65
2019-04-16T05:16:16.367Z,65
2019-04-16T05:17:16.841Z,70
2019-04-16T05:18:17.330Z,70
2019-04-16T05:19:18.863Z,70
2019-04-16T05:20:20.103Z,70
2019-04-16T05:21:17.543Z,70
2019-04-16T05:22:14.620Z,75
2019-04-16T05:23:14.474Z,75
2019-04-16T05:24:14.672Z,75
2019-04-16T05:25:14.967Z,75
2019-04-16T05:26:17.018Z,75
2019-04-16T05:27:17.764Z,75
2019-04-16T05:28:18.728Z,80
2019-04-16T05:29:19.102Z,80
2019-04-16T05:30:19.815Z,80
2019-04-16T05:31:15.032Z,80
2019-04-16T05:32:14.297Z,80
2019-04-16T05:33:15.568Z,80
2019-04-16T05:34:20.580Z,80
2019-04-16T05:35:18.862Z,85
2019-04-16T05:36:21.005Z,85
2019-04-16T05:37:16.346Z,85
2019-04-16T05:38:14.455Z,85
2019-04-16T05:39:14.450Z,85
2019-04-16T05:40:14.423Z,85
2019-04-16T05:41:28.166Z,85
2019-04-16T05:42:14.394Z,90
2019-04-16T05:43:14.621Z,90
2019-04-16T05:44:14.355Z,90
2019-04-16T05:45:15.942Z,90
2019-04-16T05:46:18.601Z,90
2019-04-16T05:47:19.479Z,90
2019-04-16T05:48:14.303Z,90
2019-04-16T05:49:14.272Z,90
2019-04-16T05:50:14.358Z,95
2019-04-16T05:51:13.993Z,95
2019-04-16T05:52:14.219Z,95
2019-04-16T05:53:20.523Z,95
2019-04-16T05:54:18.703Z,95
2019-04-16T05:55:20.024Z,95
2019-04-16T05:56:14.172Z,95
2019-04-16T05:57:14.153Z,100
2019-04-16T05:58:14.135Z,100
2019-04-16T05:59:13.901Z,100
2019-04-16T06:00:19.524Z,100
2019-04-16T06:01:17.830Z,100
2019-04-16T06:02:20.312Z,100
2019-04-16T06:03:14.178Z,100
2019-04-16T06:04:14.393Z,100
2019-04-16T06:05:13.813Z,100
2019-04-16T06:06:13.763Z,100
2019-04-16T06:07:17.102Z,100
2019-04-16T06:08:18.382Z,105
2019-04-16T06:09:19.292Z,105
2019-04-16T06:10:21.832Z,105
2019-04-16T06:11:26.959Z,110
2019-04-16T06:12:17.740Z,105
2019-04-16T06:13:18.879Z,105
2019-04-16T06:14:19.589Z,105
2019-04-16T06:15:13.890Z,105
2019-04-16T06:16:13.865Z,105
2019-04-16T06:17:13.594Z,110
2019-04-16T06:18:17.741Z,110
2019-04-16T06:19:18.093Z,110
2019-04-16T06:20:18.920Z,110
2019-04-16T06:21:13.888Z,110
2019-04-16T06:22:13.297Z,110
2019-04-16T06:23:13.749Z,110
2019-04-16T06:24:14.348Z,110
2019-04-16T06:25:18.898Z,110
2019-04-16T06:26:19.762Z,115
2019-04-16T06:27:13.693Z,115
2019-04-16T06:28:13.505Z,115
2019-04-16T06:29:13.737Z,115
2019-04-16T06:30:13.653Z,115
2019-04-16T06:31:17.148Z,115
2019-04-16T06:32:18.113Z,115
2019-04-16T06:33:13.622Z,115
2019-04-16T06:34:13.884Z,120
2019-04-16T06:35:13.584Z,130
2019-04-16T06:36:13.320Z,125
2019-04-16T06:37:13.558Z,130
2019-04-16T06:38:13.554Z,140
2019-04-16T06:39:13.524Z,155
2019-04-16T06:40:13.511Z,155
2019-04-16T06:41:13.517Z,170
2019-04-16T06:42:13.485Z,185
2019-04-16T06:43:13.466Z,180
2019-04-16T06:44:13.814Z,185
2019-04-16T06:45:15.278Z,210
2019-04-16T06:46:16.327Z,245
2019-04-16T06:47:18.081Z,255
2019-04-16T06:48:17.733Z,250
2019-04-16T06:49:14.252Z,245
2019-04-16T06:50:13.283Z,245
2019-04-16T06:51:16.582Z,250
2019-04-16T06:52:18.591Z,265
2019-04-16T06:53:12.856Z,270
2019-04-16T06:54:13.751Z,270
2019-04-16T06:55:13.887Z,270
2019-04-16T06:56:20.179Z,270
2019-04-16T06:57:16.213Z,275
2019-04-16T06:58:16.189Z,280
2019-04-16T06:59:16.563Z,285
2019-04-16T07:00:16.587Z,285
2019-04-16T07:01:16.364Z,290
2019-04-16T07:02:17.440Z,295
2019-04-16T07:03:12.989Z,300
2019-04-16T07:04:16.347Z,290
2019-04-16T07:05:13.239Z,280
2019-04-16T07:06:13.937Z,270
2019-04-16T07:07:17.568Z,235
2019-04-16T07:08:17.712Z,195
2019-04-16T07:09:13.361Z,180
2019-04-16T07:10:13.188Z,170
2019-04-16T07:11:13.181Z,165
2019-04-16T07:12:13.180Z,160
2019-04-16T07:13:17.669Z,155
2019-04-16T07:14:15.203Z,155
2019-04-16T07:15:12.682Z,150
2019-04-16T07:16:13.172Z,150
2019-04-16T07:17:13.151Z,150
2019-04-16T07:18:15.580Z,145
2019-04-16T07:19:19.673Z,145
2019-04-16T07:20:17.981Z,145
2019-04-16T07:21:14.440Z,145
2019-04-16T07:22:13.842Z,145
2019-04-16T07:23:13.123Z,145
2019-04-16T07:24:13.204Z,145
2019-04-16T07:25:15.888Z,145
2019-04-16T07:26:18.823Z,145
2019-04-16T07:27:19.414Z,145
2019-04-16T07:28:13.274Z,145
2019-04-16T07:29:13.297Z,145
2019-04-16T07:30:22.125Z,145
2019-04-16T07:31:35.096Z,145
2019-04-16T07:32:13.320Z,145
2019-04-16T07:33:13.174Z,145
2019-04-16T07:34:13.151Z,145
2019-04-16T07:35:12.934Z,145
2019-04-16T07:36:12.836Z,145
2019-04-16T07:37:13.069Z,145
2019-04-16T07:38:18.570Z,145
2019-04-16T07:39:36.835Z,145
2019-04-16T07:40:18.173Z,145
2019-04-16T07:41:21.781Z,145
2019-04-16T07:43:52.243Z,145
2019-04-16T07:44:10.912Z,145
2019-04-16T07:45:04.958Z,145
2019-04-16T07:46:02.262Z,145
2019-04-16T07:47:02.337Z,145
2019-04-16T07:48:05.587Z,145
2019-04-16T07:49:04.801Z,145
2019-04-16T07:50:08.744Z,145
2019-04-16T07:51:06.841Z,145
2019-04-16T07:52:06.931Z,145
2019-04-16T07:53:02.198Z,145
2019-04-16T07:54:05.194Z,145
2019-04-16T07:55:02.185Z,150
2019-04-16T07:56:02.347Z,150
2019-04-16T07:57:01.935Z,150
2019-04-16T07:58:02.303Z,150
2019-04-16T07:59:07.582Z,150
2019-04-16T08:00:02.143Z,150
2019-04-16T08:01:02.151Z,150
2019-04-16T08:02:02.482Z,150
2019-04-16T08:03:03.753Z,150
2019-04-16T08:04:08.256Z,150
2019-04-16T08:05:07.419Z,150
2019-04-16T08:06:02.263Z,150
2019-04-16T08:07:02.273Z,150
2019-04-16T08:08:03.427Z,150
2019-04-16T08:09:05.983Z,150
2019-04-16T08:10:06.891Z,155
2019-04-16T08:11:01.851Z,150
2019-04-16T08:12:02.615Z,150
2019-04-16T08:13:06.928Z,150
2019-04-16T08:14:02.080Z,150
2019-04-16T08:15:17.907Z,150
2019-04-16T08:16:04.270Z,150
2019-04-16T08:17:02.041Z,150
2019-04-16T08:18:02.265Z,150
2019-04-16T08:19:02.036Z,150
2019-04-16T08:20:05.058Z,150
2019-04-16T08:21:17.551Z,150
2019-04-16T08:22:02.334Z,150
2019-04-16T08:23:02.090Z,150
2019-04-16T08:24:02.944Z,150
2019-04-16T08:25:10.402Z,150
2019-04-16T08:26:18.503Z,150
2019-04-16T08:27:02.186Z,150
2019-04-16T08:28:06.550Z,150
2019-04-16T08:29:01.955Z,150
2019-04-16T08:30:07.462Z,150
2019-04-16T08:31:01.959Z,150
2019-04-16T08:32:01.931Z,150
2019-04-16T08:33:01.933Z,150
2019-04-16T08:34:01.916Z,150
2019-04-16T08:35:01.989Z,150
2019-04-16T08:36:02.084Z,150
2019-04-16T08:37:02.067Z,150
2019-04-16T08:38:05.766Z,150
2019-04-16T08:39:05.793Z,150
2019-04-16T08:40:01.624Z,150
2019-04-16T08:41:01.679Z,150
2019-04-16T08:42:02.560Z,150
2019-04-16T08:43:06.560Z,150
2019-04-16T08:44:09.884Z,150
2019-04-16T08:45:07.170Z,150
2019-04-16T08:46:01.821Z,150
2019-04-16T08:47:03.905Z,150
2019-04-16T08:48:01.811Z,150
2019-04-16T08:49:03.815Z,150
2019-04-16T08:50:04.097Z,150
2019-04-16T08:51:07.616Z,150
2019-04-16T08:52:01.780Z,150
2019-04-16T08:53:01.779Z,150
2019-04-16T08:54:01.778Z,150
2019-04-16T08:55:04.467Z,150
2019-04-16T08:56:01.510Z,150
2019-04-16T08:57:01.497Z,150
2019-04-16T08:58:05.723Z,150
2019-04-16T08:59:12.261Z,150
2019-04-16T09:00:01.680Z,150
2019-04-16T09:01:01.482Z,150
2019-04-16T09:02:04.303Z,150
2019-04-16T09:03:05.064Z,150
2019-04-16T09:04:06.189Z,150
2019-04-16T09:05:05.827Z,150
2019-04-16T09:06:03.895Z,150
2019-04-16T09:07:22.158Z,150
2019-04-16T09:08:21.746Z,150
2019-04-16T09:09:24.269Z,150
2019-04-16T09:10:29.907Z,150
2019-04-16T09:11:05.363Z,150
2019-04-16T09:12:01.913Z,150
2019-04-16T09:13:15.156Z,150
2019-04-16T09:14:01.652Z,150
2019-04-16T09:15:05.616Z,150
2019-04-16T09:16:01.598Z,150
2019-04-16T09:17:01.953Z,150
2019-04-16T09:18:01.354Z,150
2019-04-16T09:19:01.584Z,150
2019-04-16T09:20:05.108Z,150
2019-04-16T09:21:01.706Z,150
2019-04-16T09:22:01.596Z,150
2019-04-16T09:23:05.723Z,150
2019-04-16T09:24:13.448Z,150
2019-04-16T09:25:01.295Z,150
2019-04-16T09:26:23.481Z,150
2019-04-16T09:27:04.873Z,150
2019-04-16T09:28:07.800Z,150
2019-04-16T09:29:09.874Z,150
2019-04-16T09:30:01.506Z,150
2019-04-16T09:31:01.609Z,150
2019-04-16T09:32:05.620Z,150
2019-04-16T09:33:05.286Z,150
2019-04-16T09:34:10.542Z,150
2019-04-16T09:35:22.872Z,150
2019-04-16T09:36:01.226Z,150
2019-04-16T09:37:01.206Z,150
2019-04-16T09:38:01.446Z,150
2019-04-16T09:39:01.455Z,150
2019-04-16T09:40:15.420Z,150
2019-04-16T09:41:01.440Z,150
2019-04-16T09:42:01.446Z,150
2019-04-16T09:43:01.223Z,150
2019-04-16T09:44:05.946Z,150
2019-04-16T09:45:04.947Z,150
2019-04-16T09:46:48.717Z,150
2019-04-16T09:47:09.909Z,150
2019-04-16T09:48:05.067Z,150
2019-04-16T09:49:04.660Z,150
2019-04-16T09:50:01.349Z,150
2019-04-16T09:51:01.358Z,150
2019-04-16T09:52:03.768Z,145
2019-04-16T09:53:06.702Z,145
2019-04-16T09:54:01.337Z,145
2019-04-16T09:55:01.095Z,145
2019-04-16T09:56:01.325Z,145
2019-04-16T09:57:04.775Z,145
2019-04-16T09:58:05.820Z,145
2019-04-16T09:59:01.295Z,145
2019-04-16T10:00:01.294Z,145
2019-04-16T10:01:01.274Z,145
2019-04-16T10:02:01.273Z,145
2019-04-16T10:03:04.608Z,145
2019-04-16T10:04:03.182Z,145
2019-04-16T10:05:01.090Z,145
2019-04-16T10:06:00.993Z,145
2019-04-16T10:07:01.343Z,145
2019-04-16T10:08:04.137Z,145
2019-04-16T10:09:03.792Z,145
2019-04-16T10:10:04.122Z,145
2019-04-16T10:11:08.624Z,145
2019-04-16T10:12:08.408Z,145
2019-04-16T10:13:01.304Z,145
2019-04-16T10:14:01.230Z,145
2019-04-16T10:15:01.193Z,145
2019-04-16T10:16:02.813Z,145
2019-04-16T10:17:01.017Z,145
2019-04-16T10:18:04.636Z,145
2019-04-16T10:19:01.203Z,145
2019-04-16T10:20:00.917Z,145
2019-04-16T10:21:01.165Z,145
2019-04-16T10:22:04.069Z,145
2019-04-16T10:23:01.125Z,145
2019-04-16T10:24:01.156Z,145
2019-04-16T10:25:01.185Z,145
2019-04-16T10:26:01.156Z,145
2019-04-16T10:27:08.912Z,145
2019-04-16T10:28:01.837Z,145
2019-04-16T10:29:01.110Z,145
2019-04-16T10:30:00.900Z,145
2019-04-16T10:31:01.114Z,145
2019-04-16T10:32:00.862Z,145
2019-04-16T10:33:01.060Z,145
2019-04-16T10:34:01.082Z,145
2019-04-16T10:35:00.856Z,145
2019-04-16T10:36:06.533Z,145
2019-04-16T10:37:01.063Z,145
2019-04-16T10:38:00.604Z,145
2019-04-16T10:39:00.785Z,145
2019-04-16T10:40:01.046Z,140
2019-04-16T10:41:00.800Z,140
2019-04-16T10:42:03.625Z,140
2019-04-16T10:43:01.069Z,140
2019-04-16T10:44:01.103Z,140
2019-04-16T10:45:01.028Z,140
2019-04-16T10:46:00.801Z,140
2019-04-16T10:47:01.011Z,140
2019-04-16T10:48:00.968Z,140
2019-04-16T10:49:00.471Z,140
2019-04-16T10:50:00.747Z,140
2019-04-16T10:51:00.970Z,140
2019-04-16T10:52:01.104Z,140
2019-04-16T10:53:05.372Z,140
2019-04-16T10:54:00.972Z,140
2019-04-16T10:55:01.149Z,140
2019-04-16T10:56:00.986Z,140
2019-04-16T10:57:06.626Z,140
2019-04-16T10:58:00.940Z,140
2019-04-16T10:59:00.938Z,140
2019-04-16T11:00:00.839Z,140
2019-04-16T11:01:01.240Z,140
2019-04-16T11:02:00.901Z,140
2019-04-16T11:03:01.617Z,140
2019-04-16T11:04:00.844Z,140
2019-04-16T11:05:04.429Z,140
2019-04-16T11:06:06.260Z,140
2019-04-16T11:07:00.871Z,140
2019-04-16T11:08:00.883Z,140
2019-04-16T11:09:00.926Z,140
2019-04-16T11:10:00.631Z,140
2019-04-16T11:11:00.578Z,140
2019-04-16T11:12:04.728Z,140
2019-04-16T11:13:00.829Z,140
2019-04-16T11:14:09.233Z,140
2019-04-16T11:15:00.588Z,140
2019-04-16T11:16:00.757Z,140
2019-04-16T11:17:00.849Z,140
2019-04-16T11:18:00.546Z,140
2019-04-16T11:19:04.345Z,140
2019-04-16T11:20:07.321Z,140
2019-04-16T11:21:00.794Z,140
2019-04-16T11:22:05.803Z,140
2019-04-16T11:23:00.774Z,140
2019-04-16T11:24:00.824Z,140
2019-04-16T11:25:00.301Z,140
2019-04-16T11:26:00.697Z,140
2019-04-16T11:27:00.678Z,140
2019-04-16T11:28:00.782Z,140
2019-04-16T11:29:00.769Z,140
2019-04-16T11:30:00.749Z,140
2019-04-16T11:31:00.770Z,140
2019-04-16T11:32:00.260Z,140
2019-04-16T11:33:03.137Z,140
2019-04-16T11:34:00.675Z,140
2019-04-16T11:35:00.734Z,140
2019-04-16T11:36:16.711Z,140
2019-04-16T11:37:10.303Z,140
2019-04-16T11:38:00.664Z,140
2019-04-16T11:39:00.703Z,140
2019-04-16T11:40:00.618Z,140
2019-04-16T11:41:00.714Z,140
2019-04-16T11:42:00.567Z,140
2019-04-16T11:43:00.624Z,140
2019-04-16T11:44:17.272Z,140
2019-04-16T11:45:00.587Z,135
2019-04-16T11:46:00.653Z,135
2019-04-16T11:47:00.654Z,135
2019-04-16T11:48:00.649Z,135
2019-04-16T11:49:00.271Z,135
2019-04-16T11:50:00.593Z,140
2019-04-16T11:51:00.566Z,140
2019-04-16T11:52:00.384Z,140
2019-04-16T11:53:04.810Z,140
2019-04-16T11:54:00.318Z,140
2019-04-16T11:55:03.255Z,140
2019-04-16T11:56:00.392Z,140
2019-04-16T11:57:06.164Z,140
2019-04-16T11:58:00.483Z,140
2019-04-16T11:59:02.650Z,140
2019-04-16T12:00:16.042Z,140
2019-04-16T12:01:00.428Z,140
2019-04-16T12:02:00.254Z,140
2019-04-16T12:03:00.559Z,140
2019-04-16T12:04:03.412Z,140
2019-04-16T12:05:06.137Z,140
2019-04-16T12:06:00.644Z,140
2019-04-16T12:07:00.235Z,140
2019-04-16T12:08:00.234Z,140
2019-04-16T12:09:00.473Z,140
2019-04-16T12:10:00.156Z,135
2019-04-16T12:11:00.532Z,135
2019-04-16T12:12:00.431Z,135
2019-04-16T12:13:03.306Z,135
2019-04-16T12:14:00.448Z,135
2019-04-16T12:15:00.154Z,135
2019-04-16T12:16:00.231Z,135
2019-04-16T12:17:00.398Z,135
2019-04-16T12:18:00.589Z,135
2019-04-16T12:19:00.383Z,135
2019-04-16T12:20:00.791Z,135
2019-04-16T12:21:00.525Z,135
2019-04-16T12:22:00.506Z,135
2019-04-16T12:23:00.474Z,135
2019-04-16T12:24:00.207Z,135
2019-04-16T12:25:00.435Z,135
2019-04-16T12:26:00.380Z,135
2019-04-16T12:27:00.553Z,135
2019-04-16T12:28:01.529Z,135
2019-04-16T12:29:00.485Z,135
2019-04-16T12:30:00.132Z,135
2019-04-16T12:31:00.390Z,135
2019-04-16T12:32:03.542Z,135
2019-04-16T12:33:00.394Z,130
2019-04-16T12:34:00.403Z,130
2019-04-16T12:35:00.899Z,130
2019-04-16T12:36:00.261Z,130
2019-04-16T12:37:00.327Z,130
2019-04-16T12:38:00.293Z,130
2019-04-16T12:39:00.372Z,130
2019-04-16T12:40:00.256Z,130
2019-04-16T12:41:00.107Z,130
2019-04-16T12:42:02.275Z,130
2019-04-16T12:43:00.021Z,130
2019-04-16T12:44:01.210Z,130
2019-04-16T12:44:59.982Z,130
2019-04-16T12:46:03.048Z,130
2019-04-16T12:47:00.111Z,130
2019-04-16T12:48:04.129Z,130
2019-04-16T12:49:00.321Z,130
2019-04-16T12:50:00.227Z,135
2019-04-16T12:51:00.016Z,135
2019-04-16T12:52:00.282Z,135
2019-04-16T12:53:04.443Z,135
2019-04-16T12:54:03.786Z,135
2019-04-16T12:55:06.138Z,135
2019-04-16T12:56:05.509Z,135
2019-04-16T12:57:00.194Z,135
2019-04-16T12:58:03.526Z,135
2019-04-16T12:59:00.818Z,135
2019-04-16T13:00:04.119Z,135
2019-04-16T13:01:02.758Z,135
2019-04-16T13:01:59.785Z,135
2019-04-16T13:03:00.034Z,135
2019-04-16T13:04:01.961Z,135
2019-04-16T13:05:00.124Z,135
2019-04-16T13:06:04.500Z,135
2019-04-16T13:07:00.000Z,135
2019-04-16T13:08:00.445Z,135
2019-04-16T13:09:03.052Z,135
2019-04-16T13:10:00.336Z,135
2019-04-16T13:10:59.973Z,135
2019-04-16T13:12:00.524Z,135
2019-04-16T13:13:00.134Z,135
2019-04-16T13:13:59.707Z,135
2019-04-16T13:15:10.063Z,135
2019-04-16T13:15:59.951Z,135
2019-04-16T13:17:00.031Z,135
2019-04-16T13:18:01.103Z,135
2019-04-16T13:18:59.932Z,135
2019-04-16T13:20:00.073Z,130
2019-04-16T13:21:06.642Z,130
2019-04-16T13:22:02.400Z,130
2019-04-16T13:23:00.356Z,130
2019-04-16T13:24:00.047Z,130
2019-04-16T13:24:59.883Z,130
2019-04-16T13:26:00.068Z,130
2019-04-16T13:26:59.912Z,130
2019-04-16T13:28:00.394Z,130
2019-04-16T13:29:05.436Z,130
2019-04-16T13:30:03.805Z,130
2019-04-16T13:30:59.986Z,130
2019-04-16T13:31:59.998Z,130
2019-04-16T13:33:00.006Z,130
2019-04-16T13:34:00.215Z,130
2019-04-16T13:35:02.877Z,130
2019-04-16T13:35:59.891Z,130
2019-04-16T13:37:06.930Z,130
2019-04-16T13:37:59.787Z,130
2019-04-16T13:38:59.528Z,130
2019-04-16T13:40:01.958Z,130
2019-04-16T13:41:06.870Z,130
2019-04-16T13:41:59.761Z,130
2019-04-16T13:43:01.213Z,130
2019-04-16T13:43:59.744Z,130
2019-04-16T13:45:15.099Z,130
2019-04-16T13:46:04.994Z,130
2019-04-16T13:47:04.013Z,130
2019-04-16T13:48:20.208Z,130
2019-04-16T13:49:04.261Z,130
2019-04-16T13:50:05.469Z,130
2019-04-16T13:50:59.456Z,130
2019-04-16T13:52:02.214Z,130
2019-04-16T13:53:02.960Z,125
2019-04-16T13:54:02.856Z,130
2019-04-16T13:54:59.674Z,130
2019-04-16T13:55:59.433Z,130
2019-04-16T13:57:01.227Z,130
2019-04-16T13:57:59.659Z,130
2019-04-16T13:59:03.640Z,130
2019-04-16T14:00:06.053Z,125
2019-04-16T14:00:59.634Z,130
2019-04-16T14:02:01.428Z,125
2019-04-16T14:03:01.294Z,130
2019-04-16T14:04:03.675Z,130
2019-04-16T14:05:05.728Z,125
2019-04-16T14:05:59.603Z,125
2019-04-16T14:06:59.611Z,125
2019-04-16T14:07:59.587Z,125